Annamarie — CQFZ — position and weather

sailwx.info

Track history (hours):
 
Tides and Currents Weather Stations Pressure Air Temp Water Temp Dewpoint Dewpoint Depression Visibility Wind Speed Wind Dir Waves Ship Positions

Annamarie

Last reported at 2017-Sep-26 13:34 UTC. Time now 2017-Sep-26 16:26 UTC.
Position N 28°51' W 013°36'.

Length 138 m; draft 6.4 m.

Type: Ship (hazmat cat A). MMSI: 255805627.

Date/timePositionNaut miles runAvg speedWind from/ knotsBaromVisibWave heightAir tempDewpointWater temp
2017-Sep-26 13:34N 28°51' W 013°36'1 8.5
2017-Sep-26 13:29N 28°50' W 013°36'5 8.8
2017-Sep-26 12:57N 28°46' W 013°38'4 8.7
2017-Sep-26 12:30N 28°42' W 013°40'4 8.9
2017-Sep-26 12:00N 28°38' W 013°43'911.8
2017-Sep-26 11:15N 28°31' W 013°48'16 2.0
2017-Sep-26 03:07N 28°15' W 013°51'3 9.5
2017-Sep-26 02:49N 28°12' W 013°53'3 9.5
2017-Sep-26 02:30N 28°11' W 013°56'5 9.7
2017-Sep-26 02:00N 28°08' W 014°01'5 9.6
2017-Sep-26 01:29N 28°06' W 014°06'5 9.6
2017-Sep-26 01:00N 28°04' W 014°10'5 9.6
2017-Sep-26 00:30N 28°02' W 014°15'5 9.6
2017-Sep-26 00:00N 28°00' W 014°20'5 9.9
2017-Sep-25 23:30N 28°00' W 014°26'510.1
2017-Sep-25 23:00N 28°00' W 014°32'5 9.5
2017-Sep-25 22:30N 28°02' W 014°37'5 9.6
2017-Sep-25 22:00N 28°02' W 014°42'5 9.5
2017-Sep-25 21:30N 28°03' W 014°47'5 9.8
2017-Sep-25 21:00N 28°03' W 014°53'510.3
2017-Sep-25 20:30N 28°05' W 014°59'510.0
2017-Sep-25 20:01N 28°06' W 015°04'510.1
2017-Sep-25 19:31N 28°08' W 015°09'510.2
2017-Sep-25 19:01N 28°09' W 015°15'510.0
2017-Sep-25 18:31N 28°11' W 015°20'5 9.5
2017-Sep-25 18:01N 28°12' W 015°26'5 9.6
2017-Sep-25 17:31N 28°13' W 015°31'5 9.5
2017-Sep-25 17:01N 28°14' W 015°36'5 9.6
2017-Sep-25 16:30N 28°15' W 015°42'5 9.5
2017-Sep-25 16:00N 28°15' W 015°47'5 9.4
2017-Sep-25 15:31N 28°16' W 015°52'5 9.3
2017-Sep-25 15:00N 28°17' W 015°57'5 9.7
2017-Sep-25 14:31N 28°20' W 016°02'5 9.6
2017-Sep-25 14:00N 28°23' W 016°06'5 9.6
2017-Sep-25 13:30N 28°26' W 016°10'4 8.5
2017-Sep-25 13:00N 28°29' W 016°14'0 0.2
2017-Sep-25 12:22N 28°29' W 016°14'0 0.0
2017-Sep-25 11:52N 28°29' W 016°14'0 0.0
2017-Sep-25 11:22N 28°29' W 016°14'0 0.0
2017-Sep-25 10:52N 28°29' W 016°14'0 0.0
2017-Sep-25 10:25N 28°29' W 016°14'0 0.0
2017-Sep-25 09:55N 28°29' W 016°14'0 0.0
2017-Sep-25 09:25N 28°29' W 016°14'0 0.0
2017-Sep-25 08:55N 28°29' W 016°14'0 0.0
2017-Sep-25 08:25N 28°29' W 016°14'0 0.0
2017-Sep-25 07:55N 28°29' W 016°14'0 0.0
2017-Sep-25 07:28N 28°29' W 016°14'0 0.0
2017-Sep-25 06:55N 28°29' W 016°14'0 0.3
2017-Sep-25 06:30N 28°29' W 016°14'2 3.1
2017-Sep-25 06:00N 28°28' W 016°13'5 9.3
2017-Sep-25 05:30N 28°26' W 016°08'510.9
2017-Sep-25 05:00N 28°24' W 016°02'511.0
2017-Sep-25 04:30N 28°23' W 015°56'611.0
2017-Sep-25 04:00N 28°21' W 015°50'611.1
2017-Sep-25 03:30N 28°19' W 015°45'510.9
2017-Sep-25 03:00N 28°17' W 015°39'510.6
2017-Sep-25 02:30N 28°15' W 015°33'510.5
2017-Sep-25 02:00N 28°13' W 015°27'5 9.2
2017-Sep-25 01:30N 28°11' W 015°23'4 8.0
2017-Sep-25 01:00N 28°07' W 015°24'1 1.9
2017-Sep-25 00:30N 28°08' W 015°25'0 0.0
2017-Sep-24 23:49N 28°08' W 015°25'0 0.0
2017-Sep-24 23:19N 28°08' W 015°25'0 0.0
2017-Sep-24 22:49N 28°08' W 015°25'0 0.0
2017-Sep-24 22:22N 28°08' W 015°25'0 0.0
2017-Sep-24 21:49N 28°08' W 015°25'0 0.0
2017-Sep-24 21:22N 28°08' W 015°25'0 0.0
2017-Sep-24 20:52N 28°08' W 015°25'0 0.0
2017-Sep-24 20:22N 28°08' W 015°25'0 0.0
2017-Sep-24 19:55N 28°08' W 015°25'0 0.0
2017-Sep-24 19:25N 28°08' W 015°25'0 0.0
2017-Sep-24 18:52N 28°08' W 015°25'0 0.0
2017-Sep-24 18:10N 28°08' W 015°25'0 0.0
2017-Sep-24 17:55N 28°08' W 015°25'0 0.1
2017-Sep-24 17:30N 28°08' W 015°25'3 5.1
2017-Sep-24 17:00N 28°08' W 015°22'611.9
2017-Sep-24 16:30N 28°13' W 015°18'612.4
2017-Sep-24 16:01N 28°17' W 015°14'612.3
2017-Sep-24 15:31N 28°22' W 015°09'612.6
2017-Sep-24 15:00N 28°27' W 015°05'612.7
2017-Sep-24 14:31N 28°32' W 015°00'812.8
2017-Sep-24 13:55N 28°38' W 014°55'512.8
2017-Sep-24 13:31N 28°42' W 014°51'612.9
2017-Sep-24 13:01N 28°47' W 014°47'712.8
2017-Sep-24 12:30N 28°52' W 014°42'612.9
2017-Sep-24 12:01N 28°57' W 014°37'612.9
2017-Sep-24 11:30N 29°02' W 014°33'1215.1
2017-Sep-24 10:44N 29°11' W 014°24'1616.2
2017-Sep-24 09:45N 29°24' W 014°13'416.0
2017-Sep-24 09:30N 29°27' W 014°10'2516.3
2017-Sep-24 07:58N 29°46' W 013°52'1116.3
2017-Sep-24 07:16N 29°55' W 013°44'716.1
2017-Sep-24 06:48N 30°01' W 013°38'515.8
2017-Sep-24 06:29N 30°05' W 013°35'2516.3
2017-Sep-24 04:58N 30°24' W 013°17'816.5
2017-Sep-24 04:31N 30°30' W 013°11'816.0
2017-Sep-24 04:00N 30°36' W 013°05'816.0
2017-Sep-24 03:30N 30°42' W 012°59'816.2
2017-Sep-24 03:00N 30°49' W 012°53'816.2
2017-Sep-24 02:31N 30°55' W 012°48'816.5
2017-Sep-24 02:01N 31°01' W 012°41'816.6
2017-Sep-24 01:30N 31°08' W 012°35'816.3
2017-Sep-24 01:01N 31°14' W 012°29'817.0
2017-Sep-24 00:31N 31°21' W 012°23'816.7
2017-Sep-24 00:00N 31°27' W 012°17'5516.4
2017-Sep-23 20:41N 32°10' W 011°37'316.4
2017-Sep-23 20:30N 32°12' W 011°35'816.3
2017-Sep-23 20:01N 32°18' W 011°29'  
2017-Sep-20 11:49N 32°42' W 010°25'614.1
2017-Sep-20 11:22N 32°37' W 010°29'1114.6
2017-Sep-20 10:38N 32°28' W 010°36'215.3
2017-Sep-20 10:31N 32°26' W 010°37'1415.4
2017-Sep-20 09:36N 32°15' W 010°47'215.2
2017-Sep-20 09:27N 32°13' W 010°48'2215.3
2017-Sep-20 07:59N 31°54' W 011°03'3915.7
2017-Sep-20 05:30N 31°22' W 011°30'1116.2
2017-Sep-20 04:50N 31°13' W 011°37'516.2
2017-Sep-20 04:30N 31°09' W 011°40'916.3
2017-Sep-20 03:56N 31°01' W 011°46'716.0
2017-Sep-20 03:30N 30°55' W 011°50'816.1
2017-Sep-20 03:00N 30°49' W 011°55'815.9
2017-Sep-20 02:30N 30°42' W 012°01'815.6
2017-Sep-20 02:00N 30°36' W 012°06'815.7
2017-Sep-20 01:30N 30°29' W 012°11'815.8
2017-Sep-20 00:59N 30°22' W 012°16'915.9
2017-Sep-20 00:27N 30°15' W 012°22'715.8
2017-Sep-20 00:01N 30°09' W 012°26'816.0
2017-Sep-19 23:31N 30°03' W 012°31'816.0
2017-Sep-19 23:01N 29°56' W 012°36'816.2
2017-Sep-19 22:30N 29°49' W 012°41'816.1
2017-Sep-19 22:00N 29°43' W 012°46'816.1
2017-Sep-19 21:30N 29°36' W 012°52'816.2
2017-Sep-19 21:00N 29°29' W 012°57'816.4
2017-Sep-19 20:30N 29°22' W 013°02'816.5
2017-Sep-19 20:01N 29°16' W 013°07'816.0
2017-Sep-19 19:31N 29°09' W 013°13'815.5
2017-Sep-19 19:01N 29°04' W 013°19'815.7
2017-Sep-19 18:31N 28°59' W 013°27'5 9.1
2017-Sep-19 18:00N 28°58' W 013°32'0 0.0
2017-Sep-19 17:22N 28°58' W 013°32'0 0.0
2017-Sep-19 17:00N 28°58' W 013°32'0 0.0
2017-Sep-19 16:27N 28°58' W 013°32'0 0.0
2017-Sep-19 15:57N 28°58' W 013°32'0 0.0
2017-Sep-19 15:26N 28°58' W 013°32'0 0.0
2017-Sep-19 14:56N 28°58' W 013°32'1 1.9
2017-Sep-19 14:31N 28°57' W 013°32'2 3.4
2017-Sep-19 14:00N 28°56' W 013°33'0 0.6
2017-Sep-19 13:31N 28°56' W 013°33'3 5.3
2017-Sep-19 13:01N 28°53' W 013°34'714.3
2017-Sep-19 12:30N 28°47' W 013°38'915.9
2017-Sep-19 11:58N 28°39' W 013°43'13 1.8
2017-Sep-19 04:43N 28°27' W 013°49'310.4
2017-Sep-19 04:24N 28°24' W 013°48'4 9.5
2017-Sep-19 04:00N 28°21' W 013°48'510.3
2017-Sep-19 03:30N 28°16' W 013°51'5 9.5
2017-Sep-19 03:00N 28°12' W 013°53'5 9.3
2017-Sep-19 02:30N 28°09' W 013°58'5 9.4
2017-Sep-19 02:00N 28°07' W 014°03'510.1
2017-Sep-19 01:30N 28°05' W 014°08'510.2
2017-Sep-19 01:00N 28°03' W 014°13'5 9.9
2017-Sep-19 00:30N 28°00' W 014°18'4 8.9
2017-Sep-19 00:00N 27°60' W 014°23'5 9.6
2017-Sep-18 23:30N 28°00' W 014°28'510.0
2017-Sep-18 23:00N 28°01' W 014°34'5 9.8
2017-Sep-18 22:30N 28°02' W 014°40'510.1
2017-Sep-18 22:00N 28°03' W 014°45'510.0
2017-Sep-18 21:30N 28°03' W 014°51'510.0
2017-Sep-18 21:00N 28°04' W 014°56'5 9.9
2017-Sep-18 20:30N 28°06' W 015°02'5 9.9
2017-Sep-18 20:01N 28°07' W 015°07'5 9.9
2017-Sep-18 19:31N 28°08' W 015°12'510.0
2017-Sep-18 19:01N 28°10' W 015°18'5 9.8
2017-Sep-18 18:31N 28°11' W 015°23'510.3
2017-Sep-18 18:01N 28°12' W 015°29'510.3
2017-Sep-18 17:31N 28°13' W 015°35'510.4
2017-Sep-18 17:01N 28°14' W 015°40'510.0
2017-Sep-18 16:30N 28°15' W 015°46'5 9.6
2017-Sep-18 16:01N 28°16' W 015°51'5 9.7
2017-Sep-18 15:30N 28°17' W 015°57'5 9.6
2017-Sep-18 14:58N 28°20' W 016°01'4 9.4
2017-Sep-18 14:30N 28°22' W 016°06'5 9.6
2017-Sep-18 14:00N 28°26' W 016°10'5 8.8
2017-Sep-18 13:26N 28°29' W 016°14'0 0.2
2017-Sep-18 13:00N 28°29' W 016°14'0 0.0
2017-Sep-18 12:30N 28°29' W 016°14'0 0.0
2017-Sep-18 11:15N 28°29' W 016°14'0 0.0
2017-Sep-18 10:57N 28°29' W 016°14'0 0.0
2017-Sep-18 10:30N 28°29' W 016°14'0 0.0
2017-Sep-18 10:00N 28°29' W 016°14'0 0.0
2017-Sep-18 09:30N 28°29' W 016°14'0 0.0
2017-Sep-18 08:48N 28°29' W 016°14'0 0.0
2017-Sep-18 08:30N 28°29' W 016°14'0 0.0
2017-Sep-18 08:00N 28°29' W 016°14'0 0.0
2017-Sep-18 07:30N 28°29' W 016°14'0 0.0
2017-Sep-18 07:00N 28°29' W 016°14'0 0.0
2017-Sep-18 06:30N 28°29' W 016°14'2 3.3
2017-Sep-18 06:00N 28°28' W 016°13'5 9.3
2017-Sep-18 05:31N 28°26' W 016°08'612.0
2017-Sep-18 05:00N 28°24' W 016°02'612.5
2017-Sep-18 04:30N 28°22' W 015°55'612.8
2017-Sep-18 04:00N 28°20' W 015°48'612.8
2017-Sep-18 03:31N 28°17' W 015°41'713.1
2017-Sep-18 03:01N 28°15' W 015°34'713.6
2017-Sep-18 02:31N 28°13' W 015°27'510.8
2017-Sep-18 02:01N 28°09' W 015°23'2 4.2
2017-Sep-18 01:31N 28°08' W 015°25'0 0.2
2017-Sep-18 00:55N 28°08' W 015°25'0 0.0
2017-Sep-18 00:25N 28°08' W 015°25'0 0.0
2017-Sep-17 23:58N 28°08' W 015°25'0 0.0
2017-Sep-17 23:28N 28°08' W 015°25'0 0.0
2017-Sep-17 22:58N 28°08' W 015°25'0 0.0
2017-Sep-17 22:28N 28°08' W 015°25'0 0.0
2017-Sep-17 21:58N 28°08' W 015°25'0 0.0
2017-Sep-17 21:28N 28°08' W 015°25'0 0.0
2017-Sep-17 20:58N 28°08' W 015°25'0 0.0
2017-Sep-17 20:28N 28°08' W 015°25'0 0.0
2017-Sep-17 19:58N 28°08' W 015°25'0 0.0
2017-Sep-17 19:28N 28°08' W 015°25'0 0.0
2017-Sep-17 18:58N 28°08' W 015°25'0 0.0
2017-Sep-17 18:28N 28°08' W 015°25'0 0.3
2017-Sep-17 18:00N 28°08' W 015°25'2 4.3
2017-Sep-17 17:30N 28°07' W 015°23'5 9.7
2017-Sep-17 17:01N 28°11' W 015°20'714.7
2017-Sep-17 16:31N 28°17' W 015°14'714.4
2017-Sep-17 16:01N 28°22' W 015°09'714.5
2017-Sep-17 15:31N 28°28' W 015°04'714.2
2017-Sep-17 15:00N 28°33' W 014°59'714.1
2017-Sep-17 14:31N 28°39' W 014°54'714.2
2017-Sep-17 14:00N 28°44' W 014°49'814.7
2017-Sep-17 13:28N 28°51' W 014°43'714.7
2017-Sep-17 13:00N 28°56' W 014°38'714.7
2017-Sep-17 12:30N 29°02' W 014°33'714.7
2017-Sep-17 12:00N 29°07' W 014°28'714.5
2017-Sep-17 11:30N 29°13' W 014°23'914.7
2017-Sep-17 10:54N 29°20' W 014°16'  
Track history (hours):
 
Tides and Currents Weather Stations Pressure Air Temp Water Temp Dewpoint Dewpoint Depression Visibility Wind Speed Wind Dir Waves Ship Positions

Annamarie

Last reported at 2017-Sep-26 13:34 UTC. Time now 2017-Sep-26 16:26 UTC.
Position N 28°51' W 013°36'.

Length 138 m; draft 6.4 m.

Type: Ship (hazmat cat A). MMSI: 255805627.

Date/timePositionNaut miles runAvg speedWind from/ knotsBaromVisibWave heightAir tempDewpointWater temp
2017-Sep-26 13:34N 28°51' W 013°36'1 8.5
2017-Sep-26 13:29N 28°50' W 013°36'5 8.8
2017-Sep-26 12:57N 28°46' W 013°38'4 8.7
2017-Sep-26 12:30N 28°42' W 013°40'4 8.9
2017-Sep-26 12:00N 28°38' W 013°43'911.8
2017-Sep-26 11:15N 28°31' W 013°48'16 2.0
2017-Sep-26 03:07N 28°15' W 013°51'3 9.5
2017-Sep-26 02:49N 28°12' W 013°53'3 9.5
2017-Sep-26 02:30N 28°11' W 013°56'5 9.7
2017-Sep-26 02:00N 28°08' W 014°01'5 9.6
2017-Sep-26 01:29N 28°06' W 014°06'5 9.6
2017-Sep-26 01:00N 28°04' W 014°10'5 9.6
2017-Sep-26 00:30N 28°02' W 014°15'5 9.6
2017-Sep-26 00:00N 28°00' W 014°20'5 9.9
2017-Sep-25 23:30N 28°00' W 014°26'510.1
2017-Sep-25 23:00N 28°00' W 014°32'5 9.5
2017-Sep-25 22:30N 28°02' W 014°37'5 9.6
2017-Sep-25 22:00N 28°02' W 014°42'5 9.5
2017-Sep-25 21:30N 28°03' W 014°47'5 9.8
2017-Sep-25 21:00N 28°03' W 014°53'510.3
2017-Sep-25 20:30N 28°05' W 014°59'510.0
2017-Sep-25 20:01N 28°06' W 015°04'510.1
2017-Sep-25 19:31N 28°08' W 015°09'510.2
2017-Sep-25 19:01N 28°09' W 015°15'510.0
2017-Sep-25 18:31N 28°11' W 015°20'5 9.5
2017-Sep-25 18:01N 28°12' W 015°26'5 9.6
2017-Sep-25 17:31N 28°13' W 015°31'5 9.5
2017-Sep-25 17:01N 28°14' W 015°36'5 9.6
2017-Sep-25 16:30N 28°15' W 015°42'5 9.5
2017-Sep-25 16:00N 28°15' W 015°47'5 9.4
2017-Sep-25 15:31N 28°16' W 015°52'5 9.3
2017-Sep-25 15:00N 28°17' W 015°57'5 9.7
2017-Sep-25 14:31N 28°20' W 016°02'5 9.6
2017-Sep-25 14:00N 28°23' W 016°06'5 9.6
2017-Sep-25 13:30N 28°26' W 016°10'4 8.5
2017-Sep-25 13:00N 28°29' W 016°14'0 0.2
2017-Sep-25 12:22N 28°29' W 016°14'0 0.0
2017-Sep-25 11:52N 28°29' W 016°14'0 0.0
2017-Sep-25 11:22N 28°29' W 016°14'0 0.0
2017-Sep-25 10:52N 28°29' W 016°14'0 0.0
2017-Sep-25 10:25N 28°29' W 016°14'0 0.0
2017-Sep-25 09:55N 28°29' W 016°14'0 0.0
2017-Sep-25 09:25N 28°29' W 016°14'0 0.0
2017-Sep-25 08:55N 28°29' W 016°14'0 0.0
2017-Sep-25 08:25N 28°29' W 016°14'0 0.0
2017-Sep-25 07:55N 28°29' W 016°14'0 0.0
2017-Sep-25 07:28N 28°29' W 016°14'0 0.0
2017-Sep-25 06:55N 28°29' W 016°14'0 0.3
2017-Sep-25 06:30N 28°29' W 016°14'2 3.1
2017-Sep-25 06:00N 28°28' W 016°13'5 9.3
2017-Sep-25 05:30N 28°26' W 016°08'510.9
2017-Sep-25 05:00N 28°24' W 016°02'511.0
2017-Sep-25 04:30N 28°23' W 015°56'611.0
2017-Sep-25 04:00N 28°21' W 015°50'611.1
2017-Sep-25 03:30N 28°19' W 015°45'510.9
2017-Sep-25 03:00N 28°17' W 015°39'510.6
2017-Sep-25 02:30N 28°15' W 015°33'510.5
2017-Sep-25 02:00N 28°13' W 015°27'5 9.2
2017-Sep-25 01:30N 28°11' W 015°23'4 8.0
2017-Sep-25 01:00N 28°07' W 015°24'1 1.9
2017-Sep-25 00:30N 28°08' W 015°25'0 0.0
2017-Sep-24 23:49N 28°08' W 015°25'0 0.0
2017-Sep-24 23:19N 28°08' W 015°25'0 0.0
2017-Sep-24 22:49N 28°08' W 015°25'0 0.0
2017-Sep-24 22:22N 28°08' W 015°25'0 0.0
2017-Sep-24 21:49N 28°08' W 015°25'0 0.0
2017-Sep-24 21:22N 28°08' W 015°25'0 0.0
2017-Sep-24 20:52N 28°08' W 015°25'0 0.0
2017-Sep-24 20:22N 28°08' W 015°25'0 0.0
2017-Sep-24 19:55N 28°08' W 015°25'0 0.0
2017-Sep-24 19:25N 28°08' W 015°25'0 0.0
2017-Sep-24 18:52N 28°08' W 015°25'0 0.0
2017-Sep-24 18:10N 28°08' W 015°25'0 0.0
2017-Sep-24 17:55N 28°08' W 015°25'0 0.1
2017-Sep-24 17:30N 28°08' W 015°25'3 5.1
2017-Sep-24 17:00N 28°08' W 015°22'611.9
2017-Sep-24 16:30N 28°13' W 015°18'612.4
2017-Sep-24 16:01N 28°17' W 015°14'612.3
2017-Sep-24 15:31N 28°22' W 015°09'612.6
2017-Sep-24 15:00N 28°27' W 015°05'612.7
2017-Sep-24 14:31N 28°32' W 015°00'812.8
2017-Sep-24 13:55N 28°38' W 014°55'512.8
2017-Sep-24 13:31N 28°42' W 014°51'612.9
2017-Sep-24 13:01N 28°47' W 014°47'712.8
2017-Sep-24 12:30N 28°52' W 014°42'612.9
2017-Sep-24 12:01N 28°57' W 014°37'612.9
2017-Sep-24 11:30N 29°02' W 014°33'1215.1
2017-Sep-24 10:44N 29°11' W 014°24'1616.2
2017-Sep-24 09:45N 29°24' W 014°13'416.0
2017-Sep-24 09:30N 29°27' W 014°10'2516.3
2017-Sep-24 07:58N 29°46' W 013°52'1116.3
2017-Sep-24 07:16N 29°55' W 013°44'716.1
2017-Sep-24 06:48N 30°01' W 013°38'515.8
2017-Sep-24 06:29N 30°05' W 013°35'2516.3
2017-Sep-24 04:58N 30°24' W 013°17'816.5
2017-Sep-24 04:31N 30°30' W 013°11'816.0
2017-Sep-24 04:00N 30°36' W 013°05'816.0
2017-Sep-24 03:30N 30°42' W 012°59'816.2
2017-Sep-24 03:00N 30°49' W 012°53'816.2
2017-Sep-24 02:31N 30°55' W 012°48'816.5
2017-Sep-24 02:01N 31°01' W 012°41'816.6
2017-Sep-24 01:30N 31°08' W 012°35'816.3
2017-Sep-24 01:01N 31°14' W 012°29'817.0
2017-Sep-24 00:31N 31°21' W 012°23'816.7
2017-Sep-24 00:00N 31°27' W 012°17'5516.4
2017-Sep-23 20:41N 32°10' W 011°37'316.4
2017-Sep-23 20:30N 32°12' W 011°35'816.3
2017-Sep-23 20:01N 32°18' W 011°29'  
2017-Sep-20 11:49N 32°42' W 010°25'614.1
2017-Sep-20 11:22N 32°37' W 010°29'1114.6
2017-Sep-20 10:38N 32°28' W 010°36'215.3
2017-Sep-20 10:31N 32°26' W 010°37'1415.4
2017-Sep-20 09:36N 32°15' W 010°47'215.2
2017-Sep-20 09:27N 32°13' W 010°48'2215.3
2017-Sep-20 07:59N 31°54' W 011°03'3915.7
2017-Sep-20 05:30N 31°22' W 011°30'1116.2
2017-Sep-20 04:50N 31°13' W 011°37'516.2
2017-Sep-20 04:30N 31°09' W 011°40'916.3
2017-Sep-20 03:56N 31°01' W 011°46'716.0
2017-Sep-20 03:30N 30°55' W 011°50'816.1
2017-Sep-20 03:00N 30°49' W 011°55'815.9
2017-Sep-20 02:30N 30°42' W 012°01'815.6
2017-Sep-20 02:00N 30°36' W 012°06'815.7
2017-Sep-20 01:30N 30°29' W 012°11'815.8
2017-Sep-20 00:59N 30°22' W 012°16'915.9
2017-Sep-20 00:27N 30°15' W 012°22'715.8
2017-Sep-20 00:01N 30°09' W 012°26'816.0
2017-Sep-19 23:31N 30°03' W 012°31'816.0
2017-Sep-19 23:01N 29°56' W 012°36'816.2
2017-Sep-19 22:30N 29°49' W 012°41'816.1
2017-Sep-19 22:00N 29°43' W 012°46'816.1
2017-Sep-19 21:30N 29°36' W 012°52'816.2
2017-Sep-19 21:00N 29°29' W 012°57'816.4
2017-Sep-19 20:30N 29°22' W 013°02'816.5
2017-Sep-19 20:01N 29°16' W 013°07'816.0
2017-Sep-19 19:31N 29°09' W 013°13'815.5
2017-Sep-19 19:01N 29°04' W 013°19'815.7
2017-Sep-19 18:31N 28°59' W 013°27'5 9.1
2017-Sep-19 18:00N 28°58' W 013°32'0 0.0
2017-Sep-19 17:22N 28°58' W 013°32'0 0.0
2017-Sep-19 17:00N 28°58' W 013°32'0 0.0
2017-Sep-19 16:27N 28°58' W 013°32'0 0.0
2017-Sep-19 15:57N 28°58' W 013°32'0 0.0
2017-Sep-19 15:26N 28°58' W 013°32'0 0.0
2017-Sep-19 14:56N 28°58' W 013°32'1 1.9
2017-Sep-19 14:31N 28°57' W 013°32'2 3.4
2017-Sep-19 14:00N 28°56' W 013°33'0 0.6
2017-Sep-19 13:31N 28°56' W 013°33'3 5.3
2017-Sep-19 13:01N 28°53' W 013°34'714.3
2017-Sep-19 12:30N 28°47' W 013°38'915.9
2017-Sep-19 11:58N 28°39' W 013°43'13 1.8
2017-Sep-19 04:43N 28°27' W 013°49'310.4
2017-Sep-19 04:24N 28°24' W 013°48'4 9.5
2017-Sep-19 04:00N 28°21' W 013°48'510.3
2017-Sep-19 03:30N 28°16' W 013°51'5 9.5
2017-Sep-19 03:00N 28°12' W 013°53'5 9.3
2017-Sep-19 02:30N 28°09' W 013°58'5 9.4
2017-Sep-19 02:00N 28°07' W 014°03'510.1
2017-Sep-19 01:30N 28°05' W 014°08'510.2
2017-Sep-19 01:00N 28°03' W 014°13'5 9.9
2017-Sep-19 00:30N 28°00' W 014°18'4 8.9
2017-Sep-19 00:00N 27°60' W 014°23'5 9.6
2017-Sep-18 23:30N 28°00' W 014°28'510.0
2017-Sep-18 23:00N 28°01' W 014°34'5 9.8
2017-Sep-18 22:30N 28°02' W 014°40'510.1
2017-Sep-18 22:00N 28°03' W 014°45'510.0
2017-Sep-18 21:30N 28°03' W 014°51'510.0
2017-Sep-18 21:00N 28°04' W 014°56'5 9.9
2017-Sep-18 20:30N 28°06' W 015°02'5 9.9
2017-Sep-18 20:01N 28°07' W 015°07'5 9.9
2017-Sep-18 19:31N 28°08' W 015°12'510.0
2017-Sep-18 19:01N 28°10' W 015°18'5 9.8
2017-Sep-18 18:31N 28°11' W 015°23'510.3
2017-Sep-18 18:01N 28°12' W 015°29'510.3
2017-Sep-18 17:31N 28°13' W 015°35'510.4
2017-Sep-18 17:01N 28°14' W 015°40'510.0
2017-Sep-18 16:30N 28°15' W 015°46'5 9.6
2017-Sep-18 16:01N 28°16' W 015°51'5 9.7
2017-Sep-18 15:30N 28°17' W 015°57'5 9.6
2017-Sep-18 14:58N 28°20' W 016°01'4 9.4
2017-Sep-18 14:30N 28°22' W 016°06'5 9.6
2017-Sep-18 14:00N 28°26' W 016°10'5 8.8
2017-Sep-18 13:26N 28°29' W 016°14'0 0.2
2017-Sep-18 13:00N 28°29' W 016°14'0 0.0
2017-Sep-18 12:30N 28°29' W 016°14'0 0.0
2017-Sep-18 11:15N 28°29' W 016°14'0 0.0
2017-Sep-18 10:57N 28°29' W 016°14'0 0.0
2017-Sep-18 10:30N 28°29' W 016°14'0 0.0
2017-Sep-18 10:00N 28°29' W 016°14'0 0.0
2017-Sep-18 09:30N 28°29' W 016°14'0 0.0
2017-Sep-18 08:48N 28°29' W 016°14'0 0.0
2017-Sep-18 08:30N 28°29' W 016°14'0 0.0
2017-Sep-18 08:00N 28°29' W 016°14'0 0.0
2017-Sep-18 07:30N 28°29' W 016°14'0 0.0
2017-Sep-18 07:00N 28°29' W 016°14'0 0.0
2017-Sep-18 06:30N 28°29' W 016°14'2 3.3
2017-Sep-18 06:00N 28°28' W 016°13'5 9.3
2017-Sep-18 05:31N 28°26' W 016°08'612.0
2017-Sep-18 05:00N 28°24' W 016°02'612.5
2017-Sep-18 04:30N 28°22' W 015°55'612.8
2017-Sep-18 04:00N 28°20' W 015°48'612.8
2017-Sep-18 03:31N 28°17' W 015°41'713.1
2017-Sep-18 03:01N 28°15' W 015°34'713.6
2017-Sep-18 02:31N 28°13' W 015°27'510.8
2017-Sep-18 02:01N 28°09' W 015°23'2 4.2
2017-Sep-18 01:31N 28°08' W 015°25'0 0.2
2017-Sep-18 00:55N 28°08' W 015°25'0 0.0
2017-Sep-18 00:25N 28°08' W 015°25'0 0.0
2017-Sep-17 23:58N 28°08' W 015°25'0 0.0
2017-Sep-17 23:28N 28°08' W 015°25'0 0.0
2017-Sep-17 22:58N 28°08' W 015°25'0 0.0
2017-Sep-17 22:28N 28°08' W 015°25'0 0.0
2017-Sep-17 21:58N 28°08' W 015°25'0 0.0
2017-Sep-17 21:28N 28°08' W 015°25'0 0.0
2017-Sep-17 20:58N 28°08' W 015°25'0 0.0
2017-Sep-17 20:28N 28°08' W 015°25'0 0.0
2017-Sep-17 19:58N 28°08' W 015°25'0 0.0
2017-Sep-17 19:28N 28°08' W 015°25'0 0.0
2017-Sep-17 18:58N 28°08' W 015°25'0 0.0
2017-Sep-17 18:28N 28°08' W 015°25'0 0.3
2017-Sep-17 18:00N 28°08' W 015°25'2 4.3
2017-Sep-17 17:30N 28°07' W 015°23'5 9.7
2017-Sep-17 17:01N 28°11' W 015°20'714.7
2017-Sep-17 16:31N 28°17' W 015°14'714.4
2017-Sep-17 16:01N 28°22' W 015°09'714.5
2017-Sep-17 15:31N 28°28' W 015°04'714.2
2017-Sep-17 15:00N 28°33' W 014°59'714.1
2017-Sep-17 14:31N 28°39' W 014°54'714.2
2017-Sep-17 14:00N 28°44' W 014°49'814.7
2017-Sep-17 13:28N 28°51' W 014°43'714.7
2017-Sep-17 13:00N 28°56' W 014°38'714.7
2017-Sep-17 12:30N 29°02' W 014°33'714.7
2017-Sep-17 12:00N 29°07' W 014°28'714.5
2017-Sep-17 11:30N 29°13' W 014°23'914.7
2017-Sep-17 10:54N 29°20' W 014°16'  

Dump ship's entire track history